createdAt,value
2023-03-11T00:00:23.573Z,4.37
2023-03-11T00:02:51.835Z,4.60
2023-03-11T00:05:22.414Z,4.68
2023-03-11T00:07:51.908Z,4.64
2023-03-11T00:10:20.557Z,5.46
2023-03-11T00:12:47.382Z,4.65
2023-03-11T00:15:17.003Z,4.84
2023-03-11T00:17:44.781Z,4.79
2023-03-11T00:20:48.036Z,4.35
2023-03-11T00:23:17.247Z,4.30
2023-03-11T00:25:46.028Z,5.19
2023-03-11T00:28:16.837Z,4.70
2023-03-11T00:30:47.275Z,4.36
2023-03-11T00:33:15.358Z,5.12
2023-03-11T00:35:42.689Z,4.46
2023-03-11T00:38:11.781Z,4.30
2023-03-11T00:40:40.587Z,4.54
2023-03-11T00:43:09.013Z,4.53
2023-03-11T00:45:35.513Z,4.71
2023-03-11T00:48:04.460Z,4.55
2023-03-11T00:50:33.064Z,4.57
2023-03-11T00:53:00.497Z,4.78
2023-03-11T00:55:30.144Z,4.33
2023-03-11T00:58:00.328Z,4.51
2023-03-11T01:00:29.236Z,4.04
2023-03-11T01:02:56.216Z,4.50
2023-03-11T01:05:25.812Z,4.19
2023-03-11T01:07:54.256Z,4.11
2023-03-11T01:10:23.653Z,3.97
2023-03-11T01:12:53.589Z,4.64
2023-03-11T01:15:24.516Z,4.53
2023-03-11T01:17:52.065Z,4.36
2023-03-11T01:20:26.136Z,4.91
2023-03-11T01:22:54.027Z,4.61
2023-03-11T01:25:22.078Z,4.77
2023-03-11T01:27:49.604Z,4.30
2023-03-11T01:30:18.120Z,4.30
2023-03-11T01:32:47.300Z,4.39
2023-03-11T01:35:15.172Z,4.57
2023-03-11T01:37:42.099Z,4.56
2023-03-11T01:40:15.934Z,4.75
2023-03-11T01:42:42.569Z,4.44
2023-03-11T01:45:19.725Z,4.81
2023-03-11T01:47:47.218Z,4.58
2023-03-11T01:50:14.161Z,4.52
2023-03-11T01:52:42.771Z,4.40
2023-03-11T01:55:12.742Z,4.30
2023-03-11T01:57:40.772Z,4.50
2023-03-11T02:00:10.660Z,4.54
2023-03-11T02:02:47.733Z,4.30
2023-03-11T02:05:15.642Z,3.88
2023-03-11T02:07:43.539Z,4.47
2023-03-11T02:10:12.534Z,4.31
2023-03-11T02:12:40.820Z,4.53
2023-03-11T02:15:08.645Z,4.57
2023-03-11T02:17:37.725Z,4.27
2023-03-11T02:20:15.244Z,4.38
2023-03-11T02:22:44.893Z,4.01
2023-03-11T02:25:15.128Z,3.56
2023-03-11T02:27:49.437Z,4.21
2023-03-11T02:30:17.174Z,4.03
2023-03-11T02:32:44.871Z,3.90
2023-03-11T02:35:11.823Z,5.23
2023-03-11T02:37:43.649Z,4.25
2023-03-11T02:40:23.341Z,4.56
2023-03-11T02:43:02.405Z,4.41
2023-03-11T02:45:30.913Z,4.57
2023-03-11T02:47:59.468Z,4.15
2023-03-11T02:50:30.292Z,4.68
2023-03-11T02:52:58.909Z,3.58
2023-03-11T02:55:27.725Z,3.73
2023-03-11T02:57:54.445Z,4.13
2023-03-11T03:00:21.935Z,3.57
2023-03-11T03:03:08.963Z,3.61
2023-03-11T03:05:37.840Z,3.86
2023-03-11T03:08:04.501Z,3.85
2023-03-11T03:10:32.293Z,4.75
2023-03-11T03:12:59.331Z,4.21
2023-03-11T03:15:27.773Z,3.74
2023-03-11T03:17:56.552Z,4.67
2023-03-11T03:20:23.675Z,4.22
2023-03-11T03:22:50.400Z,3.73
2023-03-11T03:25:21.321Z,3.94
2023-03-11T03:27:48.130Z,3.67
2023-03-11T03:30:16.529Z,3.61
2023-03-11T03:32:44.600Z,4.27
2023-03-11T03:35:14.896Z,4.97
2023-03-11T03:37:42.918Z,3.63
2023-03-11T03:40:10.020Z,4.24
2023-03-11T03:42:38.933Z,4.15
2023-03-11T03:45:07.710Z,4.20
2023-03-11T03:47:34.949Z,4.84
2023-03-11T03:50:04.415Z,4.67
2023-03-11T03:52:32.566Z,4.88
2023-03-11T03:55:01.925Z,4.60
2023-03-11T03:57:29.168Z,4.97
2023-03-11T03:59:55.701Z,4.53
2023-03-11T04:02:23.605Z,5.18
2023-03-11T04:04:50.988Z,4.86
2023-03-11T04:07:23.035Z,4.24
2023-03-11T04:09:50.343Z,3.85
2023-03-11T04:12:17.742Z,3.51
2023-03-11T04:14:46.117Z,3.62
2023-03-11T04:17:13.933Z,3.72
2023-03-11T04:19:42.334Z,4.35
2023-03-11T04:22:11.075Z,3.96
2023-03-11T04:24:37.870Z,3.75
2023-03-11T04:27:06.271Z,4.04
2023-03-11T04:29:32.945Z,3.37
2023-03-11T04:32:00.790Z,4.39
2023-03-11T04:34:28.970Z,4.30
2023-03-11T04:36:58.503Z,4.63
2023-03-11T04:39:25.476Z,4.66
2023-03-11T04:41:52.969Z,4.86
2023-03-11T04:44:19.713Z,3.94
2023-03-11T04:46:47.931Z,4.60
2023-03-11T04:49:15.853Z,5.03
2023-03-11T04:51:43.210Z,4.09
2023-03-11T04:54:10.123Z,4.08
2023-03-11T04:56:37.503Z,3.93
2023-03-11T04:59:04.653Z,3.17
2023-03-11T05:01:35.998Z,3.75
2023-03-11T05:04:05.307Z,3.43
2023-03-11T05:06:33.192Z,3.87
2023-03-11T05:08:59.925Z,3.43
2023-03-11T05:11:26.709Z,3.62
2023-03-11T05:13:53.242Z,3.92
2023-03-11T05:16:19.756Z,4.31
2023-03-11T05:18:46.454Z,4.47
2023-03-11T05:21:14.698Z,3.82
2023-03-11T05:23:42.665Z,3.90
2023-03-11T05:26:09.457Z,4.38
2023-03-11T05:28:36.276Z,3.86
2023-03-11T05:31:04.052Z,4.07
2023-03-11T05:33:35.530Z,4.15
2023-03-11T05:36:07.562Z,3.84
2023-03-11T05:38:39.562Z,4.34
2023-03-11T05:41:08.485Z,3.66
2023-03-11T05:43:35.653Z,4.85
2023-03-11T05:46:02.570Z,5.27
2023-03-11T05:48:29.848Z,4.16
2023-03-11T05:50:56.391Z,5.28
2023-03-11T05:53:23.619Z,4.83
2023-03-11T05:56:00.658Z,5.10
2023-03-11T05:58:27.782Z,5.31
2023-03-11T06:00:54.506Z,4.53
2023-03-11T06:03:21.361Z,4.27
2023-03-11T06:05:48.279Z,4.68
2023-03-11T06:08:15.570Z,4.37
2023-03-11T06:10:42.803Z,4.41
2023-03-11T06:13:10.196Z,4.41
2023-03-11T06:15:38.551Z,4.56
2023-03-11T06:18:08.012Z,5.05
2023-03-11T06:20:35.141Z,4.30
2023-03-11T06:23:03.074Z,4.46
2023-03-11T06:25:29.739Z,4.37
2023-03-11T06:27:59.018Z,4.41
2023-03-11T06:30:25.970Z,3.77
2023-03-11T06:32:55.378Z,5.20
2023-03-11T06:35:23.072Z,4.22
2023-03-11T06:37:49.782Z,4.92
2023-03-11T06:40:17.939Z,5.50
2023-03-11T06:42:47.042Z,4.66
2023-03-11T06:45:14.568Z,4.46
2023-03-11T06:47:43.488Z,5.20
2023-03-11T06:50:11.369Z,4.47
2023-03-11T06:52:45.850Z,5.24
2023-03-11T06:55:13.799Z,5.22
2023-03-11T06:57:41.026Z,5.22
2023-03-11T07:00:12.701Z,4.79
2023-03-11T07:02:41.846Z,4.72
2023-03-11T07:05:09.743Z,5.39
2023-03-11T07:07:37.275Z,5.00
2023-03-11T07:10:13.441Z,5.12
2023-03-11T07:12:40.289Z,5.37
2023-03-11T07:15:08.184Z,4.38
2023-03-11T07:17:35.928Z,4.62
2023-03-11T07:20:04.134Z,4.85
2023-03-11T07:22:31.018Z,4.34
2023-03-11T07:24:58.205Z,5.17
2023-03-11T07:27:24.898Z,4.79
2023-03-11T07:29:51.675Z,4.53
2023-03-11T07:32:19.163Z,3.88
2023-03-11T07:34:46.441Z,4.10
2023-03-11T07:37:14.535Z,4.40
2023-03-11T07:39:42.190Z,4.11
2023-03-11T07:42:09.329Z,4.19
2023-03-11T07:44:36.220Z,3.51
2023-03-11T07:47:04.414Z,4.32
2023-03-11T07:49:32.760Z,5.06
2023-03-11T07:51:59.603Z,5.90
2023-03-11T07:54:26.630Z,5.59
2023-03-11T07:56:54.049Z,5.81
2023-03-11T07:59:20.766Z,5.25
2023-03-11T08:01:47.456Z,4.96
2023-03-11T08:04:17.010Z,5.93
2023-03-11T08:06:45.949Z,5.86
2023-03-11T08:09:14.265Z,6.46
2023-03-11T08:11:41.295Z,6.64
2023-03-11T08:14:08.260Z,6.07
2023-03-11T08:16:35.144Z,5.71
2023-03-11T08:19:02.365Z,5.44
2023-03-11T08:21:31.980Z,5.81
2023-03-11T08:24:00.278Z,5.95
2023-03-11T08:26:27.717Z,6.22
2023-03-11T08:28:54.788Z,5.85
2023-03-11T08:31:24.154Z,4.98
2023-03-11T08:33:52.926Z,5.18
2023-03-11T08:36:20.313Z,5.74
2023-03-11T08:38:47.418Z,6.38
2023-03-11T08:41:15.151Z,5.59
2023-03-11T08:43:42.376Z,5.69
2023-03-11T08:46:10.717Z,6.36
2023-03-11T08:48:39.342Z,6.00
2023-03-11T08:51:10.337Z,5.66
2023-03-11T08:53:37.725Z,5.47
2023-03-11T08:56:04.808Z,6.83
2023-03-11T08:58:33.071Z,6.97
2023-03-11T09:01:00.013Z,5.58
2023-03-11T09:03:27.813Z,5.89
2023-03-11T09:06:04.751Z,6.16
2023-03-11T09:08:31.341Z,6.05
2023-03-11T09:10:57.857Z,7.55
2023-03-11T09:13:24.869Z,6.88
2023-03-11T09:15:52.178Z,6.37
2023-03-11T09:18:18.977Z,7.68
2023-03-11T09:20:47.018Z,7.48
2023-03-11T09:23:15.260Z,6.55
2023-03-11T09:25:42.235Z,6.42
2023-03-11T09:28:09.978Z,7.37
2023-03-11T09:30:39.421Z,7.01
2023-03-11T09:33:06.297Z,6.28
2023-03-11T09:35:33.213Z,7.51
2023-03-11T09:38:00.434Z,8.15
2023-03-11T09:40:29.219Z,8.55
2023-03-11T09:42:59.108Z,8.31
2023-03-11T09:45:29.343Z,8.26
2023-03-11T09:47:58.790Z,7.40
2023-03-11T09:50:44.388Z,8.22
2023-03-11T09:53:15.999Z,9.17
2023-03-11T09:55:47.974Z,9.39
2023-03-11T09:58:29.522Z,7.69
2023-03-11T10:00:56.903Z,9.12
2023-03-11T10:03:38.687Z,9.60
2023-03-11T10:06:24.689Z,8.50
2023-03-11T10:09:10.656Z,9.53
2023-03-11T10:11:57.080Z,9.39
2023-03-11T10:14:27.042Z,9.29
2023-03-11T10:16:53.877Z,9.66
2023-03-11T10:19:24.863Z,8.61
2023-03-11T10:22:12.425Z,9.29
2023-03-11T10:24:41.909Z,9.58
2023-03-11T10:27:17.256Z,9.28
2023-03-11T10:29:43.911Z,8.81
2023-03-11T10:32:16.921Z,8.49
2023-03-11T10:34:53.438Z,8.52
2023-03-11T10:37:49.146Z,8.91
2023-03-11T10:40:30.647Z,9.02
2023-03-11T10:42:58.712Z,8.85
2023-03-11T10:45:25.903Z,9.94
2023-03-11T10:47:52.332Z,9.74
2023-03-11T10:50:20.087Z,9.56
2023-03-11T10:53:04.832Z,10.14
2023-03-11T10:55:32.442Z,8.46
2023-03-11T10:58:07.047Z,9.60
2023-03-11T11:00:34.276Z,8.48
2023-03-11T11:03:04.230Z,9.98
2023-03-11T11:05:32.944Z,10.08
2023-03-11T11:08:20.439Z,8.82
2023-03-11T11:10:57.519Z,8.82
2023-03-11T11:13:25.845Z,9.61
2023-03-11T11:15:57.280Z,9.79
2023-03-11T11:18:26.370Z,8.95
2023-03-11T11:21:03.983Z,9.15
2023-03-11T11:23:35.952Z,10.18
2023-03-11T11:26:05.413Z,9.63
2023-03-11T11:28:33.509Z,9.76
2023-03-11T11:31:20.008Z,10.41
2023-03-11T11:33:52.407Z,10.30
2023-03-11T11:36:21.203Z,10.52
2023-03-11T11:38:48.999Z,11.28
2023-03-11T11:41:18.905Z,10.25
2023-03-11T11:43:51.570Z,10.61
2023-03-11T11:46:25.418Z,10.96
2023-03-11T11:49:07.438Z,9.52
2023-03-11T11:51:37.111Z,10.87
2023-03-11T11:54:24.938Z,12.10
2023-03-11T11:56:52.797Z,10.25
2023-03-11T11:59:22.102Z,10.75
2023-03-11T12:02:05.514Z,11.01
2023-03-11T12:04:43.877Z,9.56
2023-03-11T12:07:22.806Z,8.89
2023-03-11T12:09:50.217Z,10.57
2023-03-11T12:12:20.071Z,11.47
2023-03-11T12:14:47.139Z,11.65
2023-03-11T12:17:17.038Z,12.33
2023-03-11T12:19:48.476Z,11.06
2023-03-11T12:22:15.223Z,11.88
2023-03-11T12:25:00.437Z,11.61
2023-03-11T12:27:30.870Z,11.03
2023-03-11T12:30:04.012Z,11.56
2023-03-11T12:32:34.451Z,10.76
2023-03-11T12:35:04.929Z,9.71
2023-03-11T12:37:33.401Z,9.77
2023-03-11T12:40:00.902Z,10.31
2023-03-11T12:42:38.970Z,11.38
2023-03-11T12:45:25.323Z,11.47
2023-03-11T12:48:12.707Z,10.34
2023-03-11T12:50:42.013Z,10.76
2023-03-11T12:53:16.363Z,10.42
2023-03-11T12:56:01.332Z,11.25
2023-03-11T12:58:34.389Z,10.57
2023-03-11T13:01:24.311Z,11.94
2023-03-11T13:04:23.456Z,11.39
2023-03-11T13:07:08.870Z,11.26
2023-03-11T13:09:35.488Z,12.18
2023-03-11T13:12:02.325Z,12.12
2023-03-11T13:14:36.851Z,11.83
2023-03-11T13:17:39.223Z,10.95
2023-03-11T13:20:26.724Z,10.23
2023-03-11T13:22:53.493Z,11.61
2023-03-11T13:25:30.918Z,11.68
2023-03-11T13:28:20.827Z,10.34
2023-03-11T13:31:04.430Z,10.27
2023-03-11T13:33:57.759Z,11.20
2023-03-11T13:36:24.871Z,11.09
2023-03-11T13:39:11.659Z,10.41
2023-03-11T13:41:41.821Z,11.03
2023-03-11T13:44:14.374Z,12.08
2023-03-11T13:46:42.488Z,11.51
2023-03-11T13:49:18.967Z,11.40
2023-03-11T13:51:49.456Z,11.81
2023-03-11T13:54:18.577Z,10.42
2023-03-11T13:56:49.227Z,9.69
2023-03-11T13:59:23.254Z,10.23
2023-03-11T14:01:55.300Z,9.60
2023-03-11T14:04:29.915Z,9.30
2023-03-11T14:06:56.746Z,10.06
2023-03-11T14:09:24.534Z,9.76
2023-03-11T14:11:53.409Z,9.30
2023-03-11T14:14:31.128Z,9.97
2023-03-11T14:16:58.893Z,10.75
2023-03-11T14:19:27.596Z,9.53
2023-03-11T14:21:55.542Z,9.07
2023-03-11T14:24:31.896Z,10.59
2023-03-11T14:27:01.187Z,10.56
2023-03-11T14:29:35.836Z,11.86
2023-03-11T14:32:16.223Z,11.62
2023-03-11T14:34:43.181Z,11.66
2023-03-11T14:37:45.236Z,12.12
2023-03-11T14:40:24.285Z,10.89
2023-03-11T14:42:53.943Z,11.00
2023-03-11T14:45:22.535Z,10.72
2023-03-11T14:47:49.168Z,9.98
2023-03-11T14:50:17.894Z,10.58
2023-03-11T14:53:04.935Z,10.92
2023-03-11T14:55:35.048Z,11.79
2023-03-11T14:58:07.719Z,11.29
2023-03-11T15:00:36.713Z,9.28
2023-03-11T15:03:03.332Z,10.99
2023-03-11T15:05:48.609Z,11.48
2023-03-11T15:08:17.259Z,11.14
2023-03-11T15:11:04.268Z,10.33
2023-03-11T15:13:31.516Z,10.70
2023-03-11T15:15:59.855Z,10.67
2023-03-11T15:18:29.719Z,10.65
2023-03-11T15:21:16.305Z,10.52
2023-03-11T15:23:59.279Z,10.72
2023-03-11T15:26:29.750Z,10.82
2023-03-11T15:28:57.376Z,10.62
2023-03-11T15:31:23.774Z,9.99
2023-03-11T15:33:51.828Z,10.72
2023-03-11T15:36:32.716Z,10.65
2023-03-11T15:39:19.627Z,10.54
2023-03-11T15:42:04.756Z,11.45
2023-03-11T15:44:33.319Z,11.04
2023-03-11T15:47:00.798Z,10.43
2023-03-11T15:49:29.640Z,10.41
2023-03-11T15:52:03.185Z,10.11
2023-03-11T15:54:30.204Z,10.23
2023-03-11T15:56:58.537Z,10.72
2023-03-11T15:59:25.575Z,8.95
2023-03-11T16:01:52.466Z,7.28
2023-03-11T16:04:19.909Z,7.66
2023-03-11T16:06:56.507Z,7.83
2023-03-11T16:09:31.583Z,9.14
2023-03-11T16:11:58.093Z,8.86
2023-03-11T16:14:24.622Z,9.08
2023-03-11T16:16:51.064Z,9.21
2023-03-11T16:19:17.553Z,9.21
2023-03-11T16:21:46.800Z,9.50
2023-03-11T16:24:17.983Z,9.83
2023-03-11T16:26:44.799Z,10.01
2023-03-11T16:29:19.009Z,9.46
2023-03-11T16:31:46.279Z,9.38
2023-03-11T16:34:12.988Z,10.12
2023-03-11T16:36:40.330Z,9.57
2023-03-11T16:39:07.085Z,10.17
2023-03-11T16:41:41.024Z,10.25
2023-03-11T16:44:09.599Z,9.56
2023-03-11T16:46:36.466Z,9.29
2023-03-11T16:49:03.234Z,9.30
2023-03-11T16:51:29.951Z,9.11
2023-03-11T16:53:56.530Z,8.66
2023-03-11T16:56:23.019Z,8.47
2023-03-11T16:58:49.598Z,9.09
2023-03-11T17:01:21.591Z,8.57
2023-03-11T17:03:51.938Z,9.07
2023-03-11T17:06:19.449Z,8.96
2023-03-11T17:08:49.060Z,9.25
2023-03-11T17:11:20.122Z,8.41
2023-03-11T17:13:46.622Z,8.71
2023-03-11T17:16:13.497Z,8.74
2023-03-11T17:18:40.740Z,8.80
2023-03-11T17:21:10.181Z,9.14
2023-03-11T17:23:37.055Z,8.66
2023-03-11T17:26:07.738Z,8.96
2023-03-11T17:28:35.042Z,8.64
2023-03-11T17:31:02.139Z,8.28
2023-03-11T17:33:29.541Z,8.48
2023-03-11T17:36:03.016Z,8.97
2023-03-11T17:38:29.769Z,9.27
2023-03-11T17:40:57.035Z,9.39
2023-03-11T17:43:23.933Z,9.19
2023-03-11T17:45:51.268Z,9.39
2023-03-11T17:48:17.955Z,9.06
2023-03-11T17:50:44.597Z,9.58
2023-03-11T17:53:11.566Z,9.23
2023-03-11T17:55:40.646Z,8.31
2023-03-11T17:58:07.465Z,8.20
2023-03-11T18:00:34.201Z,8.19
2023-03-11T18:03:01.554Z,8.74
2023-03-11T18:05:28.507Z,8.64
2023-03-11T18:07:56.383Z,8.25
2023-03-11T18:10:23.553Z,8.87
2023-03-11T18:12:50.667Z,8.52
2023-03-11T18:15:23.447Z,8.29
2023-03-11T18:17:50.150Z,8.60
2023-03-11T18:20:18.603Z,8.43
2023-03-11T18:22:46.677Z,7.56
2023-03-11T18:25:13.871Z,8.03
2023-03-11T18:27:41.169Z,8.11
2023-03-11T18:30:08.817Z,7.88
2023-03-11T18:32:38.338Z,8.05
2023-03-11T18:35:06.530Z,8.40
2023-03-11T18:37:34.122Z,8.65
2023-03-11T18:40:00.639Z,8.49
2023-03-11T18:42:27.273Z,8.39
2023-03-11T18:44:54.342Z,8.28
2023-03-11T18:47:22.261Z,7.80
2023-03-11T18:49:50.207Z,8.30
2023-03-11T18:52:17.087Z,8.58
2023-03-11T18:54:44.576Z,7.74
2023-03-11T18:57:11.622Z,8.80
2023-03-11T18:59:38.474Z,8.52
2023-03-11T19:02:05.442Z,8.36
2023-03-11T19:04:33.098Z,8.46
2023-03-11T19:07:01.159Z,8.34
2023-03-11T19:09:27.751Z,7.34
2023-03-11T19:11:54.518Z,8.01
2023-03-11T19:14:21.724Z,7.86
2023-03-11T19:16:49.642Z,8.29
2023-03-11T19:19:16.556Z,8.24
2023-03-11T19:21:44.202Z,8.14
2023-03-11T19:24:10.804Z,8.09
2023-03-11T19:26:46.602Z,8.08
2023-03-11T19:29:14.054Z,7.38
2023-03-11T19:31:41.090Z,6.56
2023-03-11T19:34:07.818Z,7.81
2023-03-11T19:36:35.186Z,7.67
2023-03-11T19:39:01.772Z,7.83
2023-03-11T19:41:29.233Z,7.56
2023-03-11T19:43:55.819Z,7.71
2023-03-11T19:46:23.723Z,8.21
2023-03-11T19:48:50.771Z,8.02
2023-03-11T19:51:17.594Z,7.58
2023-03-11T19:53:44.267Z,7.76
2023-03-11T19:56:10.895Z,7.98
2023-03-11T19:58:37.979Z,7.66
2023-03-11T20:01:04.620Z,7.69
2023-03-11T20:03:32.369Z,6.28
2023-03-11T20:06:03.695Z,7.16
2023-03-11T20:08:30.719Z,7.29
2023-03-11T20:11:00.770Z,7.70
2023-03-11T20:13:27.360Z,8.21
2023-03-11T20:15:54.789Z,8.01
2023-03-11T20:18:21.330Z,7.60
2023-03-11T20:20:47.822Z,8.16
2023-03-11T20:23:14.777Z,8.22
2023-03-11T20:25:42.499Z,7.62
2023-03-11T20:28:09.716Z,7.87
2023-03-11T20:30:37.797Z,8.42
2023-03-11T20:33:04.369Z,8.24
2023-03-11T20:35:31.754Z,8.12
2023-03-11T20:37:59.849Z,8.18
2023-03-11T20:40:26.863Z,8.69
2023-03-11T20:42:53.726Z,8.67
2023-03-11T20:45:21.879Z,8.50
2023-03-11T20:47:49.224Z,8.58
2023-03-11T20:50:16.182Z,7.84
2023-03-11T20:52:43.278Z,7.12
2023-03-11T20:55:10.793Z,7.55
2023-03-11T20:57:38.072Z,7.04
2023-03-11T21:00:09.271Z,6.58
2023-03-11T21:02:36.928Z,6.87
2023-03-11T21:05:03.852Z,6.40
2023-03-11T21:07:30.926Z,7.08
2023-03-11T21:09:58.107Z,7.83
2023-03-11T21:12:24.734Z,7.35
2023-03-11T21:14:51.362Z,7.53
2023-03-11T21:17:18.227Z,7.70
2023-03-11T21:19:45.180Z,7.21
2023-03-11T21:22:12.286Z,7.63
2023-03-11T21:24:39.355Z,7.57
2023-03-11T21:27:06.542Z,8.09
2023-03-11T21:29:33.542Z,8.24
2023-03-11T21:32:00.350Z,7.81
2023-03-11T21:34:27.447Z,8.63
2023-03-11T21:36:54.517Z,8.50
2023-03-11T21:39:21.806Z,8.42
2023-03-11T21:41:49.134Z,8.81
2023-03-11T21:44:15.742Z,7.62
2023-03-11T21:46:42.950Z,7.85
2023-03-11T21:49:09.516Z,8.23
2023-03-11T21:51:36.031Z,8.22
2023-03-11T21:54:03.639Z,8.63
2023-03-11T21:56:30.757Z,8.24
2023-03-11T21:58:57.908Z,8.46
2023-03-11T22:01:25.182Z,8.76
2023-03-11T22:03:52.221Z,8.98
2023-03-11T22:06:19.134Z,8.32
2023-03-11T22:08:46.247Z,8.55
2023-03-11T22:11:17.979Z,8.09
2023-03-11T22:13:50.295Z,8.35
2023-03-11T22:16:17.846Z,8.37
2023-03-11T22:18:47.777Z,7.47
2023-03-11T22:21:17.783Z,7.82
2023-03-11T22:23:44.708Z,7.90
2023-03-11T22:26:11.219Z,7.53
2023-03-11T22:28:37.739Z,8.30
2023-03-11T22:31:11.748Z,7.97
2023-03-11T22:33:38.064Z,8.12
2023-03-11T22:36:04.986Z,8.24
2023-03-11T22:38:32.031Z,7.85
2023-03-11T22:41:00.277Z,8.08
2023-03-11T22:43:27.396Z,7.73
2023-03-11T22:45:53.952Z,8.26
2023-03-11T22:48:21.356Z,8.01
2023-03-11T22:50:48.461Z,8.45
2023-03-11T22:53:17.293Z,7.18
2023-03-11T22:55:44.649Z,7.56
2023-03-11T22:58:13.245Z,8.01
2023-03-11T23:00:40.248Z,8.11
2023-03-11T23:03:07.355Z,8.02
2023-03-11T23:05:40.672Z,8.48
2023-03-11T23:08:08.452Z,8.18
2023-03-11T23:10:44.902Z,7.49
2023-03-11T23:13:12.130Z,8.48
2023-03-11T23:15:42.787Z,8.89
2023-03-11T23:18:09.986Z,8.40
2023-03-11T23:20:37.447Z,8.90
2023-03-11T23:23:04.836Z,8.26
2023-03-11T23:25:32.800Z,8.19
2023-03-11T23:28:01.205Z,8.61
2023-03-11T23:30:28.232Z,8.24
2023-03-11T23:32:55.068Z,8.27
2023-03-11T23:35:21.983Z,8.18
2023-03-11T23:37:50.589Z,8.51
2023-03-11T23:40:17.756Z,8.62
2023-03-11T23:42:44.661Z,7.40
2023-03-11T23:45:11.699Z,8.57
2023-03-11T23:47:39.434Z,8.30
2023-03-11T23:50:07.813Z,8.63
2023-03-11T23:52:34.649Z,8.49
2023-03-11T23:55:01.654Z,8.43
2023-03-11T23:57:28.732Z,8.17
2023-03-11T23:59:55.359Z,8.28
